Terminal Aerodrome Forecast
Issued by NWS Wilmington, OH

Current Version | Previous Version | Text Only | Print | Product List | Glossary Off
Versions: 1 2 3 4 5 6 7 8 9 10 11 12 13 14 15 16 17 18 19 20

686
FTUS41 KILN 082110 AAB
TAFILN
TAF AMD
KILN 082110Z 0821/0918 28008KT P6SM SCT015 OVC030
      TEMPO 0821/0824 1SM -SN BKN015
     FM090000 28009KT 3SM -SN BKN015 OVC025
     FM090500 29012G20KT 5SM -SN OVC006
     FM091200 28013G23KT 3SM -SN BKN008 OVC012=

USA.gov is the U.S. government's official web portal to all federal, state and local government web resources and services.